createdAt,value
2022-09-07T00:00:43.337Z,17.97
2022-09-07T00:03:10.219Z,18.00
2022-09-07T00:05:43.680Z,17.95
2022-09-07T00:08:10.758Z,17.96
2022-09-07T00:10:37.703Z,17.93
2022-09-07T00:13:05.531Z,17.97
2022-09-07T00:15:31.952Z,17.95
2022-09-07T00:17:58.503Z,18.02
2022-09-07T00:20:25.041Z,18.17
2022-09-07T00:22:51.613Z,18.18
2022-09-07T00:25:18.053Z,18.09
2022-09-07T00:27:44.443Z,17.99
2022-09-07T00:30:11.234Z,18.09
2022-09-07T00:32:37.647Z,17.98
2022-09-07T00:35:04.479Z,18.02
2022-09-07T00:37:30.922Z,18.14
2022-09-07T00:39:57.361Z,18.09
2022-09-07T00:42:23.802Z,18.08
2022-09-07T00:45:29.238Z,18.14
2022-09-07T00:48:05.109Z,18.24
2022-09-07T00:50:46.765Z,18.23
2022-09-07T00:53:19.986Z,18.31
2022-09-07T00:55:49.553Z,18.33
2022-09-07T00:58:17.439Z,18.34
2022-09-07T01:00:46.278Z,18.39
2022-09-07T01:03:33.361Z,18.37
2022-09-07T01:06:09.842Z,18.28
2022-09-07T01:08:37.055Z,18.13
2022-09-07T01:11:04.017Z,18.25
2022-09-07T01:13:30.918Z,18.31
2022-09-07T01:16:06.422Z,18.18
2022-09-07T01:18:51.579Z,18.10
2022-09-07T01:21:35.404Z,18.21
2022-09-07T01:24:18.936Z,18.24
2022-09-07T01:27:04.178Z,18.28
2022-09-07T01:30:02.161Z,18.26
2022-09-07T01:32:47.095Z,18.18
2022-09-07T01:35:28.417Z,18.18
2022-09-07T01:38:08.326Z,18.17
2022-09-07T01:40:57.503Z,18.25
2022-09-07T01:43:45.496Z,18.22
2022-09-07T01:46:27.980Z,18.23
2022-09-07T01:49:12.329Z,18.21
2022-09-07T01:51:43.182Z,18.26
2022-09-07T01:54:27.590Z,18.20
2022-09-07T01:56:58.796Z,18.14
2022-09-07T01:59:37.850Z,18.14
2022-09-07T02:02:09.023Z,18.20
2022-09-07T02:04:42.249Z,18.22
2022-09-07T02:07:14.875Z,18.23
2022-09-07T02:09:58.814Z,18.24
2022-09-07T02:12:34.914Z,18.25
2022-09-07T02:15:06.167Z,18.04
2022-09-07T02:17:42.464Z,18.09
2022-09-07T02:20:13.033Z,18.17
2022-09-07T02:22:43.955Z,18.18
2022-09-07T02:25:14.271Z,18.18
2022-09-07T02:27:51.611Z,18.17
2022-09-07T02:30:18.006Z,18.17
2022-09-07T02:32:44.686Z,18.11
2022-09-07T02:35:11.509Z,18.11
2022-09-07T02:37:39.699Z,18.08
2022-09-07T02:40:07.084Z,18.02
2022-09-07T02:42:35.058Z,18.04
2022-09-07T02:45:05.899Z,18.10
2022-09-07T02:48:16.246Z,18.08
2022-09-07T02:50:51.493Z,17.99
2022-09-07T02:53:27.129Z,17.94
2022-09-07T02:56:23.191Z,17.97
2022-09-07T02:59:12.597Z,17.97
2022-09-07T03:02:04.835Z,17.98
2022-09-07T03:04:47.512Z,17.96
2022-09-07T03:07:18.248Z,18.02
2022-09-07T03:09:48.144Z,17.97
2022-09-07T03:12:15.198Z,17.95
2022-09-07T03:14:43.184Z,17.87
2022-09-07T03:17:10.132Z,17.90
2022-09-07T03:19:36.538Z,17.77
2022-09-07T03:22:03.836Z,17.60
2022-09-07T03:24:30.715Z,17.74
2022-09-07T03:26:57.288Z,17.77
2022-09-07T03:29:23.707Z,17.78
2022-09-07T03:31:50.138Z,17.69
2022-09-07T03:34:17.197Z,17.78
2022-09-07T03:36:43.641Z,17.75
2022-09-07T03:39:11.897Z,17.80
2022-09-07T03:41:38.343Z,17.69
2022-09-07T03:44:06.150Z,17.71
2022-09-07T03:46:33.387Z,17.62
2022-09-07T03:48:59.991Z,17.62
2022-09-07T03:51:26.452Z,17.50
2022-09-07T03:53:52.943Z,17.48
2022-09-07T03:56:21.417Z,17.45
2022-09-07T03:58:49.923Z,17.38
2022-09-07T04:01:19.695Z,17.33
2022-09-07T04:03:46.763Z,17.29
2022-09-07T04:06:13.985Z,17.30
2022-09-07T04:08:41.165Z,17.33
2022-09-07T04:11:10.827Z,17.24
2022-09-07T04:13:37.397Z,17.16
2022-09-07T04:16:11.583Z,17.12
2022-09-07T04:18:38.015Z,17.23
2022-09-07T04:21:04.440Z,17.25
2022-09-07T04:23:30.920Z,17.23
2022-09-07T04:25:57.308Z,17.23
2022-09-07T04:28:23.746Z,17.12
2022-09-07T04:30:50.223Z,17.15
2022-09-07T04:33:16.806Z,17.10
2022-09-07T04:35:43.519Z,17.12
2022-09-07T04:38:14.185Z,17.05
2022-09-07T04:40:40.581Z,17.03
2022-09-07T04:43:08.182Z,17.06
2022-09-07T04:45:36.915Z,17.10
2022-09-07T04:48:03.885Z,17.01
2022-09-07T04:50:30.398Z,16.96
2022-09-07T04:52:57.481Z,16.95
2022-09-07T04:55:23.921Z,16.94
2022-09-07T04:57:50.460Z,16.84
2022-09-07T05:00:17.164Z,16.87
2022-09-07T05:02:43.698Z,16.81
2022-09-07T05:05:10.092Z,16.85
2022-09-07T05:07:36.537Z,16.83
2022-09-07T05:10:03.468Z,16.82
2022-09-07T05:12:29.878Z,16.84
2022-09-07T05:14:56.317Z,16.83
2022-09-07T05:17:22.718Z,16.79
2022-09-07T05:19:49.178Z,16.84
2022-09-07T05:22:15.557Z,16.82
2022-09-07T05:24:41.948Z,16.82
2022-09-07T05:27:08.379Z,16.77
2022-09-07T05:32:21.149Z,16.70
2022-09-07T05:34:49.633Z,16.68
2022-09-07T05:37:17.348Z,16.82
2022-09-07T05:39:44.065Z,16.61
2022-09-07T05:42:10.616Z,16.71
2022-09-07T05:44:44.973Z,16.69
2022-09-07T05:47:12.281Z,16.81
2022-09-07T05:49:38.771Z,16.72
2022-09-07T05:52:05.257Z,16.72
2022-09-07T05:54:31.705Z,16.69
2022-09-07T05:56:58.071Z,16.72
2022-09-07T05:59:24.505Z,16.74
2022-09-07T06:01:50.909Z,16.81
2022-09-07T06:04:17.545Z,16.92
2022-09-07T06:06:59.157Z,16.97
2022-09-07T06:09:30.786Z,16.95
2022-09-07T06:11:57.320Z,16.88
2022-09-07T06:14:23.784Z,16.87
2022-09-07T06:16:50.401Z,16.98
2022-09-07T06:19:16.937Z,17.04
2022-09-07T06:21:43.482Z,17.07
2022-09-07T06:24:09.992Z,17.03
2022-09-07T06:26:36.405Z,17.03
2022-09-07T06:29:03.668Z,17.12
2022-09-07T06:31:30.745Z,17.05
2022-09-07T06:33:57.437Z,17.07
2022-09-07T06:36:27.649Z,17.04
2022-09-07T06:38:55.689Z,17.18
2022-09-07T06:44:17.268Z,17.29
2022-09-07T06:49:30.201Z,17.43
2022-09-07T06:51:56.594Z,17.43
2022-09-07T06:57:09.927Z,17.41
2022-09-07T06:59:37.523Z,17.31
2022-09-07T07:02:05.717Z,17.43
2022-09-07T07:04:37.813Z,17.51
2022-09-07T07:07:09.906Z,17.62
2022-09-07T07:09:36.309Z,17.66
2022-09-07T07:12:02.980Z,17.70
2022-09-07T07:14:33.707Z,17.70
2022-09-07T07:17:02.090Z,17.68
2022-09-07T07:19:28.537Z,17.75
2022-09-07T07:22:18.310Z,17.79
2022-09-07T07:24:41.530Z,17.87
2022-09-07T07:27:07.916Z,17.84
2022-09-07T07:29:34.292Z,17.98
2022-09-07T07:32:01.166Z,17.99
2022-09-07T07:34:27.586Z,18.12
2022-09-07T07:36:53.996Z,18.22
2022-09-07T07:42:06.954Z,18.37
2022-09-07T07:44:33.319Z,18.36
2022-09-07T07:46:59.772Z,18.34
2022-09-07T07:49:26.313Z,18.46
2022-09-07T07:54:43.136Z,18.74
2022-09-07T07:57:09.562Z,18.82
2022-09-07T07:59:36.079Z,18.92
2022-09-07T08:02:04.809Z,19.06
2022-09-07T08:04:35.564Z,19.20
2022-09-07T08:07:08.728Z,19.30
2022-09-07T08:09:38.527Z,19.42
2022-09-07T08:12:05.057Z,19.59
2022-09-07T08:14:31.576Z,19.70
2022-09-07T08:16:57.933Z,19.79
2022-09-07T08:19:24.279Z,19.89
2022-09-07T08:21:50.638Z,20.02
2022-09-07T08:24:16.980Z,20.06
2022-09-07T08:26:43.344Z,20.05
2022-09-07T08:29:09.896Z,19.99
2022-09-07T08:31:36.349Z,19.90
2022-09-07T08:34:02.882Z,19.90
2022-09-07T08:36:31.654Z,19.93
2022-09-07T08:38:58.007Z,20.04
2022-09-07T08:42:02.980Z,20.09
2022-09-07T08:44:38.760Z,20.18
2022-09-07T08:47:37.378Z,20.30
2022-09-07T08:50:18.255Z,20.50
2022-09-07T08:53:02.485Z,20.64
2022-09-07T08:55:31.516Z,20.81
2022-09-07T08:58:22.069Z,20.92
2022-09-07T09:01:30.657Z,21.05
2022-09-07T09:06:37.490Z,21.32
2022-09-07T09:09:22.253Z,21.23
2022-09-07T09:12:07.776Z,21.23
2022-09-07T09:14:54.614Z,21.23
2022-09-07T09:17:38.370Z,21.35
2022-09-07T09:20:26.536Z,21.36
2022-09-07T09:23:02.028Z,21.47
2022-09-07T09:25:33.950Z,21.52
2022-09-07T09:28:00.913Z,21.62
2022-09-07T09:30:28.141Z,21.71
2022-09-07T09:33:28.140Z,21.88
2022-09-07T09:35:57.159Z,21.84
2022-09-07T09:38:32.901Z,21.98
2022-09-07T09:41:03.826Z,22.19
2022-09-07T09:43:56.130Z,22.37
2022-09-07T09:46:27.176Z,22.51
2022-09-07T09:48:57.842Z,22.65
2022-09-07T09:54:26.092Z,22.91
2022-09-07T09:56:53.035Z,23.00
2022-09-07T10:05:34.987Z,23.01
2022-09-07T10:08:02.556Z,23.10
2022-09-07T10:10:30.121Z,23.03
2022-09-07T10:12:56.585Z,22.90
2022-09-07T10:15:28.970Z,23.09
2022-09-07T10:17:56.418Z,23.40
2022-09-07T10:20:22.722Z,23.51
2022-09-07T10:22:52.108Z,23.74
2022-09-07T10:25:37.330Z,23.94
2022-09-07T10:28:13.227Z,24.09
2022-09-07T10:31:22.063Z,24.29
2022-09-07T10:36:52.681Z,24.57
2022-09-07T10:39:26.607Z,24.69
2022-09-07T10:42:15.150Z,24.75
2022-09-07T10:45:13.686Z,24.84
2022-09-07T10:48:09.658Z,24.84
2022-09-07T10:50:53.458Z,24.99
2022-09-07T10:53:42.480Z,25.12
2022-09-07T10:56:33.160Z,25.16
2022-09-07T10:59:20.790Z,25.18
2022-09-07T11:02:08.808Z,25.19
2022-09-07T11:04:38.480Z,25.22
2022-09-07T11:07:25.153Z,25.36
2022-09-07T11:09:55.067Z,25.25
2022-09-07T11:12:31.727Z,25.28
2022-09-07T11:15:13.089Z,25.38
2022-09-07T11:17:52.599Z,25.66
2022-09-07T11:20:34.012Z,25.85
2022-09-07T11:23:15.615Z,25.89
2022-09-07T11:25:53.454Z,25.94
2022-09-07T11:28:29.343Z,26.01
2022-09-07T11:31:01.829Z,26.01
2022-09-07T11:36:50.047Z,26.02
2022-09-07T11:39:35.565Z,26.08
2022-09-07T11:45:12.133Z,26.28
2022-09-07T11:47:59.117Z,26.28
2022-09-07T11:50:29.524Z,26.34
2022-09-07T11:53:19.683Z,26.28
2022-09-07T11:55:50.490Z,26.27
2022-09-07T11:58:26.388Z,26.35
2022-09-07T12:01:14.923Z,26.36
2022-09-07T12:04:00.385Z,26.42
2022-09-07T12:06:48.716Z,26.55
2022-09-07T12:09:52.804Z,26.57
2022-09-07T12:12:24.972Z,26.43
2022-09-07T12:15:19.121Z,26.60
2022-09-07T12:18:01.870Z,26.66
2022-09-07T12:20:43.837Z,26.54
2022-09-07T12:23:16.231Z,26.40
2022-09-07T12:25:44.245Z,26.44
2022-09-07T12:28:37.311Z,26.62
2022-09-07T12:31:05.847Z,26.63
2022-09-07T12:33:37.426Z,26.61
2022-09-07T12:36:25.821Z,26.71
2022-09-07T12:39:19.880Z,26.54
2022-09-07T12:41:49.442Z,26.38
2022-09-07T12:44:18.997Z,26.29
2022-09-07T12:46:48.301Z,26.04
2022-09-07T12:49:49.306Z,25.76
2022-09-07T12:52:35.956Z,25.97
2022-09-07T12:55:28.054Z,26.13
2022-09-07T12:58:16.888Z,26.05
2022-09-07T13:01:09.673Z,25.96
2022-09-07T13:03:52.650Z,25.77
2022-09-07T13:07:09.141Z,25.92
2022-09-07T13:09:40.320Z,26.12
2022-09-07T13:15:41.091Z,26.12
2022-09-07T13:18:32.230Z,25.92
2022-09-07T13:21:07.776Z,25.86
2022-09-07T13:23:43.093Z,26.04
2022-09-07T13:26:31.541Z,25.91
2022-09-07T13:29:02.988Z,25.85
2022-09-07T13:32:07.980Z,25.78
2022-09-07T13:34:34.380Z,25.75
2022-09-07T13:37:02.096Z,25.69
2022-09-07T13:39:32.472Z,25.68
2022-09-07T13:42:00.197Z,25.64
2022-09-07T13:44:34.465Z,25.60
2022-09-07T13:47:24.468Z,25.58
2022-09-07T13:50:08.889Z,25.51
2022-09-07T13:52:53.972Z,25.43
2022-09-07T13:55:44.845Z,25.34
2022-09-07T13:58:11.167Z,25.23
2022-09-07T14:00:50.196Z,25.06
2022-09-07T14:03:16.844Z,24.97
2022-09-07T14:05:43.385Z,24.85
2022-09-07T14:08:29.682Z,24.82
2022-09-07T14:10:56.016Z,24.75
2022-09-07T14:13:22.458Z,24.61
2022-09-07T14:15:50.269Z,24.60
2022-09-07T14:18:30.129Z,24.60
2022-09-07T14:20:57.316Z,24.57
2022-09-07T14:23:30.394Z,24.53
2022-09-07T14:26:19.670Z,24.52
2022-09-07T14:28:48.714Z,24.44
2022-09-07T14:31:17.740Z,24.35
2022-09-07T14:33:56.901Z,24.30
2022-09-07T14:36:47.198Z,24.26
2022-09-07T14:39:16.719Z,24.23
2022-09-07T14:41:44.105Z,24.24
2022-09-07T14:44:27.435Z,24.25
2022-09-07T14:46:56.842Z,24.26
2022-09-07T14:49:24.382Z,24.26
2022-09-07T14:51:53.433Z,24.29
2022-09-07T14:54:23.101Z,24.31
2022-09-07T14:57:05.169Z,24.35
2022-09-07T14:59:43.579Z,24.30
2022-09-07T15:02:19.439Z,24.26
2022-09-07T15:04:47.422Z,24.18
2022-09-07T15:07:38.145Z,24.16
2022-09-07T15:10:13.381Z,24.10
2022-09-07T15:12:43.557Z,24.07
2022-09-07T15:15:21.791Z,24.07
2022-09-07T15:17:48.766Z,23.97
2022-09-07T15:20:31.861Z,24.01
2022-09-07T15:22:59.057Z,23.98
2022-09-07T15:25:25.460Z,23.97
2022-09-07T15:27:53.385Z,23.97
2022-09-07T15:30:20.100Z,23.99
2022-09-07T15:32:46.488Z,23.98
2022-09-07T15:35:13.067Z,23.95
2022-09-07T15:40:26.337Z,23.90
2022-09-07T15:43:00.562Z,23.80
2022-09-07T15:45:27.313Z,23.73
2022-09-07T15:47:53.863Z,23.73
2022-09-07T15:50:23.263Z,23.68
2022-09-07T15:52:50.256Z,23.64
2022-09-07T15:55:17.533Z,23.57
2022-09-07T15:58:02.194Z,23.60
2022-09-07T16:00:30.950Z,23.53
2022-09-07T16:03:06.194Z,23.53
2022-09-07T16:05:33.663Z,23.53
2022-09-07T16:10:53.546Z,23.40
2022-09-07T16:13:23.747Z,23.37
2022-09-07T16:15:50.144Z,23.40
2022-09-07T16:18:17.874Z,23.40
2022-09-07T16:20:44.945Z,23.39
2022-09-07T16:23:14.763Z,23.38
2022-09-07T16:25:43.131Z,23.36
2022-09-07T16:28:10.324Z,23.35
2022-09-07T16:30:40.343Z,23.33
2022-09-07T16:33:07.140Z,23.34
2022-09-07T16:35:33.556Z,23.34
2022-09-07T16:40:46.450Z,23.22
2022-09-07T16:43:12.837Z,23.22
2022-09-07T16:48:25.714Z,23.18
2022-09-07T16:51:00.438Z,23.10
2022-09-07T16:53:29.613Z,23.04
2022-09-07T16:56:05.317Z,23.00
2022-09-07T16:58:36.681Z,22.98
2022-09-07T17:01:08.012Z,22.91
2022-09-07T17:03:35.632Z,22.86
2022-09-07T17:06:04.123Z,22.85
2022-09-07T17:08:30.551Z,22.76
2022-09-07T17:11:10.499Z,22.73
2022-09-07T17:13:38.363Z,22.69
2022-09-07T17:16:10.449Z,22.69
2022-09-07T17:21:24.238Z,22.57
2022-09-07T17:23:55.400Z,22.57
2022-09-07T17:26:26.029Z,22.50
2022-09-07T17:28:54.972Z,22.43
2022-09-07T17:34:13.221Z,22.42
2022-09-07T17:36:40.234Z,22.37
2022-09-07T17:39:15.880Z,22.34
2022-09-07T17:41:42.740Z,22.33
2022-09-07T17:44:09.140Z,22.28
2022-09-07T17:46:36.161Z,22.27
2022-09-07T17:49:03.519Z,22.29
2022-09-07T17:51:31.921Z,22.26
2022-09-07T17:54:01.806Z,22.26
2022-09-07T17:56:28.814Z,22.20
2022-09-07T18:00:10.447Z,22.16
2022-09-07T18:01:41.735Z,22.17
2022-09-07T18:04:09.393Z,22.16
2022-09-07T18:06:35.795Z,22.10
2022-09-07T18:09:03.993Z,22.05
2022-09-07T18:11:48.018Z,22.00
2022-09-07T18:14:15.572Z,22.01
2022-09-07T18:16:44.205Z,21.96
2022-09-07T18:19:11.620Z,21.87
2022-09-07T18:21:40.919Z,21.85
2022-09-07T18:24:18.952Z,21.89
2022-09-07T18:26:51.028Z,21.80
2022-09-07T18:29:31.179Z,21.77
2022-09-07T18:32:00.754Z,21.71
2022-09-07T18:34:28.669Z,21.69
2022-09-07T18:36:55.410Z,21.71
2022-09-07T18:39:21.925Z,21.73
2022-09-07T18:41:48.292Z,21.66
2022-09-07T18:47:00.965Z,21.57
2022-09-07T18:49:27.366Z,21.48
2022-09-07T18:54:43.569Z,21.41
2022-09-07T18:57:09.944Z,21.34
2022-09-07T18:59:36.409Z,21.34
2022-09-07T19:02:06.060Z,21.26
2022-09-07T19:07:21.024Z,21.18
2022-09-07T19:09:48.067Z,21.20
2022-09-07T19:12:14.588Z,21.16
2022-09-07T19:14:42.052Z,21.11
2022-09-07T19:17:10.738Z,21.07
2022-09-07T19:19:38.279Z,20.89
2022-09-07T19:22:05.062Z,20.88
2022-09-07T19:24:32.061Z,20.82
2022-09-07T19:27:00.675Z,20.72
2022-09-07T19:29:27.906Z,20.64
2022-09-07T19:32:07.503Z,20.54
2022-09-07T19:34:40.207Z,20.45
2022-09-07T19:37:08.322Z,20.48
2022-09-07T19:39:34.908Z,20.37
2022-09-07T19:42:03.005Z,20.36
2022-09-07T19:44:29.397Z,20.31
2022-09-07T19:46:55.924Z,20.36
2022-09-07T19:49:22.629Z,20.22
2022-09-07T19:51:51.084Z,20.15
2022-09-07T19:54:18.074Z,20.09
2022-09-07T19:56:44.728Z,19.94
2022-09-07T19:59:12.109Z,19.96
2022-09-07T20:01:40.466Z,19.99
2022-09-07T20:04:12.247Z,20.04
2022-09-07T20:06:41.350Z,19.98
2022-09-07T20:09:08.221Z,19.97
2022-09-07T20:11:36.040Z,19.91
2022-09-07T20:14:03.180Z,19.79
2022-09-07T20:16:31.004Z,19.85
2022-09-07T20:18:58.505Z,19.77
2022-09-07T20:21:26.023Z,19.83
2022-09-07T20:23:52.451Z,19.82
2022-09-07T20:26:20.900Z,19.73
2022-09-07T20:29:01.946Z,19.63
2022-09-07T20:31:39.216Z,19.60
2022-09-07T20:34:06.029Z,19.62
2022-09-07T20:36:32.397Z,19.28
2022-09-07T20:38:58.746Z,19.51
2022-09-07T20:41:31.305Z,19.52
2022-09-07T20:43:59.944Z,19.44
2022-09-07T20:46:28.312Z,19.45
2022-09-07T20:48:55.258Z,19.42
2022-09-07T20:51:21.664Z,19.39
2022-09-07T20:53:49.449Z,19.21
2022-09-07T20:56:24.488Z,19.32
2022-09-07T20:58:56.516Z,19.29
2022-09-07T21:01:23.669Z,19.30
2022-09-07T21:03:52.409Z,19.33
2022-09-07T21:06:19.986Z,19.20
2022-09-07T21:08:48.136Z,19.18
2022-09-07T21:11:29.107Z,19.09
2022-09-07T21:14:07.551Z,19.12
2022-09-07T21:16:37.112Z,18.92
2022-09-07T21:19:07.031Z,19.01
2022-09-07T21:21:38.550Z,18.97
2022-09-07T21:24:06.385Z,19.05
2022-09-07T21:26:32.800Z,18.96
2022-09-07T21:29:04.912Z,19.07
2022-09-07T21:31:33.307Z,19.09
2022-09-07T21:34:01.626Z,19.05
2022-09-07T21:36:28.727Z,19.06
2022-09-07T21:38:55.750Z,19.08
2022-09-07T21:41:23.901Z,19.07
2022-09-07T21:43:55.380Z,19.08
2022-09-07T21:46:21.896Z,19.05
2022-09-07T21:48:48.283Z,18.90
2022-09-07T21:51:15.474Z,18.87
2022-09-07T21:53:43.242Z,18.95
2022-09-07T21:56:12.232Z,18.81
2022-09-07T21:58:39.819Z,18.77
2022-09-07T22:01:17.003Z,18.74
2022-09-07T22:03:45.674Z,18.71
2022-09-07T22:06:12.674Z,18.62
2022-09-07T22:08:40.742Z,18.61
2022-09-07T22:11:13.330Z,18.59
2022-09-07T22:13:40.168Z,18.59
2022-09-07T22:16:07.324Z,18.61
2022-09-07T22:18:34.535Z,18.46
2022-09-07T22:21:10.142Z,18.51
2022-09-07T22:23:39.588Z,18.46
2022-09-07T22:26:07.193Z,18.42
2022-09-07T22:28:34.495Z,18.42
2022-09-07T22:31:17.022Z,18.39
2022-09-07T22:33:44.580Z,18.43
2022-09-07T22:36:17.692Z,18.45
2022-09-07T22:38:46.484Z,18.40
2022-09-07T22:41:20.582Z,18.37
2022-09-07T22:43:48.095Z,18.34
2022-09-07T22:46:14.761Z,18.31
2022-09-07T22:48:41.720Z,18.28
2022-09-07T22:51:09.482Z,18.32
2022-09-07T22:53:38.176Z,18.22
2022-09-07T22:56:20.321Z,18.18
2022-09-07T22:59:08.035Z,18.29
2022-09-07T23:01:36.105Z,18.27
2022-09-07T23:04:03.589Z,18.28
2022-09-07T23:06:36.039Z,18.24
2022-09-07T23:09:06.726Z,18.21
2022-09-07T23:11:33.841Z,18.34
2022-09-07T23:14:03.138Z,18.33
2022-09-07T23:16:29.801Z,18.39
2022-09-07T23:18:58.350Z,18.29
2022-09-07T23:21:26.125Z,18.34
2022-09-07T23:23:54.556Z,18.27
2022-09-07T23:26:22.128Z,18.23
2022-09-07T23:28:56.752Z,18.10
2022-09-07T23:31:24.780Z,18.07
2022-09-07T23:33:51.535Z,18.20
2022-09-07T23:36:18.912Z,18.17
2022-09-07T23:38:46.132Z,18.13
2022-09-07T23:41:15.490Z,18.14
2022-09-07T23:43:41.952Z,18.18
2022-09-07T23:46:10.046Z,18.16
2022-09-07T23:48:36.522Z,18.01
2022-09-07T23:51:03.045Z,18.05
2022-09-07T23:53:29.434Z,18.11
2022-09-07T23:55:56.173Z,18.12
2022-09-07T23:58:23.023Z,18.12
